Latest Weather Observations for North Head

IDN60901

Issued at 3:51 pm EDT Tuesday 11 December 2018 (issued every 10 minutes, with the page automatically refreshed every 10 minutes)

About weather observations | Map of Sydney area stations | Latest observations for Sydney area | Other Formats
Station Details ID: 066197 Name: NORTH HEAD Lat: -33.82 Lon: 151.30 Height: 90.0 m
Data from the previous 72 hours. | See also: Recent months for locations in New South Wales
Date/Time
EDT
Temp
°C
App
Temp
°C
Dew
Point
°C
Rel
Hum
%
Delta-T
°C
Wind Press
QNH
hPa
Press
MSL
hPa
Rain since
9am
mm
Dir  Spd
km/h
Gust
km/h
Spd
kts
Gust
kts
11/03:30pm - - - - - SE 9 11 5 6 - - -
11/03:00pm - - - - - SSE 9 13 5 7 - - -
11/02:30pm - - - - - SSE 11 17 6 9 - - -
11/02:00pm - - - - - SSE 15 22 8 12 - - -
11/01:30pm - - - - - S 11 17 6 9 - - -
11/01:00pm - - - - - S 13 20 7 11 - - -
11/12:30pm - - - - - SSE 15 22 8 12 - - -
11/12:00pm - - - - - S 13 19 7 10 - - -
11/11:30am - - - - - SSE 15 22 8 12 - - -
11/11:00am - - - - - SSE 13 19 7 10 - - -
11/10:30am - - - - - S 13 20 7 11 - - -
11/10:00am - - - - - S 15 24 8 13 - - -
11/09:30am - - - - - S 15 22 8 12 - - -
11/09:00am - - - - - S 15 22 8 12 - - -
11/08:30am - - - - - S 13 19 7 10 - - -
11/08:00am - - - - - S 13 19 7 10 - - -
11/07:30am - - - - - S 15 20 8 11 - - -
11/07:00am - - - - - S 17 22 9 12 - - -
11/06:30am - - - - - S 17 24 9 13 - - -
11/06:00am - - - - - S 17 24 9 13 - - -
11/05:30am - - - - - SSE 19 28 10 15 - - -
11/05:00am - - - - - SSE 17 26 9 14 - - -
11/04:30am - - - - - SSE 24 33 13 18 - - -
11/04:00am - - - - - SSE 19 28 10 15 - - -
11/03:30am - - - - - S 17 26 9 14 - - -
11/03:00am - - - - - SSE 15 20 8 11 - - -
11/02:30am - - - - - S 15 20 8 11 - - -
11/02:00am - - - - - S 15 22 8 12 - - -
11/01:30am - - - - - S 13 20 7 11 - - -
11/01:00am - - - - - S 17 22 9 12 - - -
11/12:30am - - - - - S 20 30 11 16 - - -
11/12:00am - - - - - S 19 26 10 14 - - -
 
Date/Time
EDT
Temp
°C
App
Temp
°C
Dew
Point
°C
Rel
Hum
%
Delta-T
°C
Wind Press
QNH
hPa
Press
MSL
hPa
Rain since
9am
mm
Dir  Spd
km/h
Gust
km/h
Spd
kts
Gust
kts
10/11:30pm - - - - - S 17 24 9 13 - - -
10/11:00pm - - - - - S 19 30 10 16 - - -
10/10:30pm - - - - - S 19 28 10 15 - - -
10/10:00pm - - - - - S 19 30 10 16 - - -
10/09:30pm - - - - - S 19 28 10 15 - - -
10/09:00pm - - - - - S 24 37 13 20 - - -
10/08:30pm - - - - - S 19 33 10 18 - - -
10/08:00pm - - - - - S 17 26 9 14 - - -
10/07:30pm - - - - - SSW 15 24 8 13 - - -
10/07:00pm - - - - - SW 7 15 4 8 - - -
10/06:30pm - - - - - NW 7 13 4 7 - - -
10/06:00pm - - - - - CALM 0 0 0 0 - - -
10/05:30pm - - - - - NE 4 7 2 4 - - -
10/05:00pm - - - - - NE 9 13 5 7 - - -
10/04:30pm - - - - - ENE 13 19 7 10 - - -
10/04:00pm - - - - - NNE 13 17 7 9 - - -
10/03:30pm - - - - - NNE 13 17 7 9 - - -
10/03:00pm - - - - - NNE 13 19 7 10 - - -
10/02:30pm - - - - - NE 9 13 5 7 - - -
10/02:00pm - - - - - NE 7 13 4 7 - - -
10/01:30pm - - - - - NNE 9 15 5 8 - - -
10/01:00pm - - - - - NNE 11 17 6 9 - - -
10/12:30pm - - - - - NNE 13 20 7 11 - - -
10/12:00pm - - - - - N 13 20 7 11 - - -
10/11:30am - - - - - NE 7 13 4 7 - - -
10/11:00am - - - - - ENE 11 19 6 10 - - -
10/10:30am - - - - - E 9 17 5 9 - - -
10/10:00am - - - - - ESE 13 19 7 10 - - -
10/09:30am - - - - - SSE 15 20 8 11 - - -
10/09:00am - - - - - SSE 19 26 10 14 - - -
10/08:30am - - - - - SSE 20 26 11 14 - - -
10/08:00am - - - - - S 17 28 9 15 - - -
10/07:30am - - - - - SSW 17 26 9 14 - - -
10/07:00am - - - - - SSW 11 17 6 9 - - -
10/06:30am - - - - - S 6 9 3 5 - - -
10/06:00am - - - - - SSW 6 6 3 3 - - -
10/05:30am - - - - - CALM 0 2 0 1 - - -
10/05:00am - - - - - NW 2 4 1 2 - - -
10/04:30am - - - - - N 2 6 1 3 - - -
10/04:00am - - - - - N 4 6 2 3 - - -
10/03:30am - - - - - NE 9 17 5 9 - - -
10/03:00am - - - - - NE 9 19 5 10 - - -
10/02:30am - - - - - NE 19 26 10 14 - - -
10/02:00am - - - - - ENE 19 28 10 15 - - -
10/01:30am - - - - - ENE 19 28 10 15 - - -
10/01:00am - - - - - ENE 13 20 7 11 - - -
10/12:30am - - - - - NE 17 22 9 12 - - -
10/12:00am - - - - - ENE 19 28 10 15 - - -
 
Date/Time
EDT
Temp
°C
App
Temp
°C
Dew
Point
°C
Rel
Hum
%
Delta-T
°C
Wind Press
QNH
hPa
Press
MSL
hPa
Rain since
9am
mm
Dir  Spd
km/h
Gust
km/h
Spd
kts
Gust
kts
09/11:30pm - - - - - NE 15 20 8 11 - - -
09/11:00pm - - - - - NE 17 24 9 13 - - -
09/10:30pm - - - - - NE 15 24 8 13 - - -
09/10:00pm - - - - - NE 17 26 9 14 - - -
09/09:30pm - - - - - ENE 19 24 10 13 - - -
09/09:00pm - - - - - E 11 17 6 9 - - -
09/08:30pm - - - - - E 9 13 5 7 - - -
09/08:00pm - - - - - ENE 9 15 5 8 - - -
09/07:30pm - - - - - ENE 9 17 5 9 - - -
09/07:00pm - - - - - ENE 9 15 5 8 - - -
09/06:30pm - - - - - WSW 7 17 4 9 - - -
09/06:00pm - - - - - NE 20 32 11 17 - - -
09/05:30pm - - - - - NE 28 37 15 20 - - -
09/05:00pm - - - - - NE 26 37 14 20 - - -
09/04:30pm - - - - - NE 24 39 13 21 - - -
09/04:00pm - - - - - NE 26 37 14 20 - - -
09/03:30pm - - - - - NE 24 37 13 20 - - -
09/03:00pm - - - - - NE 26 35 14 19 - - -
09/02:30pm - - - - - NE 24 35 13 19 - - -
09/02:00pm - - - - - NE 24 32 13 17 - - -
09/01:30pm - - - - - NNE 20 28 11 15 - - -
09/01:00pm - - - - - NE 22 30 12 16 - - -
09/12:30pm - - - - - NE 19 28 10 15 - - -
09/12:00pm - - - - - NE 17 26 9 14 - - -
09/11:30am - - - - - NE 13 22 7 12 - - -
09/11:00am - - - - - NE 15 22 8 12 - - -
09/10:30am - - - - - ENE 11 19 6 10 - - -
09/10:00am - - - - - NE 11 19 6 10 - - -
09/09:30am - - - - - NE 11 19 6 10 - - -
09/09:00am - - - - - NNE 13 20 7 11 - - -
09/08:30am - - - - - NNE 11 19 6 10 - - -
09/08:00am - - - - - NNE 15 24 8 13 - - -
09/07:30am - - - - - NE 13 19 7 10 - - -
09/07:00am - - - - - NNE 11 15 6 8 - - -
09/06:30am - - - - - NNE 7 13 4 7 - - -
09/06:00am - - - - - NNE 13 20 7 11 - - -
09/05:30am - - - - - NNE 20 28 11 15 - - -
09/05:00am - - - - - NNE 20 28 11 15 - - -
09/04:30am - - - - - NNE 19 24 10 13 - - -
09/04:00am - - - - - NNE 19 26 10 14 - - -
09/03:30am - - - - - NNE 15 22 8 12 - - -
09/03:00am - - - - - NNE 17 28 9 15 - - -
09/02:30am - - - - - NNE 19 26 10 14 - - -
09/02:00am - - - - - NNE 20 28 11 15 - - -
09/01:30am - - - - - NNE 19 24 10 13 - - -
09/01:00am - - - - - NNE 19 28 10 15 - - -
09/12:30am - - - - - NNE 20 28 11 15 - - -
09/12:00am - - - - - NNE 17 28 9 15 - - -
 
Date/Time
EDT
Temp
°C
App
Temp
°C
Dew
Point
°C
Rel
Hum
%
Delta-T
°C
Wind Press
QNH
hPa
Press
MSL
hPa
Rain since
9am
mm
Dir  Spd
km/h
Gust
km/h
Spd
kts
Gust
kts
08/11:30pm - - - - - NNE 22 33 12 18 - - -
08/11:00pm - - - - - NNE 26 35 14 19 - - -
08/10:30pm - - - - - NNE 26 39 14 21 - - -
08/10:00pm - - - - - NNE 26 37 14 20 - - -
08/09:30pm - - - - - NNE 26 43 14 23 - - -
08/09:00pm - - - - - NNE 28 43 15 23 - - -
08/08:30pm - - - - - NNE 26 41 14 22 - - -
08/08:00pm - - - - - NNE 30 43 16 23 - - -
08/07:30pm - - - - - NNE 26 35 14 19 - - -
08/07:00pm - - - - - NNE 26 39 14 21 - - -
08/06:30pm - - - - - NNE 26 43 14 23 - - -
08/06:00pm - - - - - NNE 26 43 14 23 - - -
08/05:30pm - - - - - NNE 26 43 14 23 - - -
08/05:00pm - - - - - NE 26 41 14 22 - - -
08/04:30pm - - - - - NNE 24 37 13 20 - - -
08/04:00pm - - - - - NNE 26 37 14 20 - - -

Latest Capital City Observations: Canberra | Sydney | Melbourne | Brisbane | Adelaide | Perth | Hobart | Darwin

Other Formats:

Comma delimited format used in spreadsheet applications
http://www.bom.gov.au/fwo/IDN60901/IDN60901.95768.axf

JavaScript Object Notation format (JSON) in row-major order
http://www.bom.gov.au/fwo/IDN60901/IDN60901.95768.json